Avon, Massachusetts
Current Conditions -  °F | °C
As of 8:53 PM on Friday 24 Oct 2014 (Local Time) from KOWD Reporting Station
Overcast Overcast  
Wind Chill: 10°   Ceiling: 2700
Heat Index: 10°   Visibility: 10mi
Dew Point:   Wind: 9mph
Humidity: 74%   Direction: 310°NW
Pressure: 29.73"   Gusts: NA
Location:  42.13°N, 71.04°W
Report Text: KOWD 250053Z 31008KT 10SM OVC027 10/06 A2973 RMK AO2 SLP068 T01000056
Loading
Personal Weather Stations






























Interactive Weather Map
Tropical Storm Tracking
New forecast layout! Learn more

10-Day Weather Forecast

Advertisements
Track Severe Weather on mobile